Time;durP1;ratioP1;P1;durP2;ratioP2;P2;SDS_P1;SDS_P2;PMS_P1;PMS_P2;Temp;Humidity;BMP_temperature;BMP_pressure;BME280_temperature;BME280_humidity;BME280_pressure;Samples;Min_cycle;Max_cycle;Signal;HPM_P1;HPM_P2
2022/03/17 00:02:07;;;;;;;29.63;16.73;;;5.10;99.90;;;;;;5071974;28;20219;-80
2022/03/17 00:04:34;;;;;;;34.03;18.53;;;5.10;99.90;;;;;;5074966;28;20233;-80
2022/03/17 00:07:01;;;;;;;28.20;17.00;;;5.10;99.90;;;;;;5072267;28;20231;-80
2022/03/17 00:09:28;;;;;;;30.47;17.53;;;5.00;99.90;;;;;;5070040;28;20240;-80
2022/03/17 00:11:55;;;;;;;33.60;19.17;;;5.00;99.90;;;;;;5092700;28;20263;-79
2022/03/17 00:14:22;;;;;;;30.27;18.50;;;5.00;99.90;;;;;;5071999;28;20263;-79
2022/03/17 00:16:50;;;;;;;32.00;17.93;;;5.00;99.90;;;;;;5076457;28;20737;-78
2022/03/17 00:19:17;;;;;;;34.30;19.17;;;5.10;99.90;;;;;;5070298;28;20746;-78
2022/03/17 00:21:44;;;;;;;37.27;21.73;;;5.10;99.90;;;;;;5079144;28;20309;-78
2022/03/17 00:24:10;;;;;;;36.50;21.20;;;5.00;99.90;;;;;;5069627;28;20313;-78
2022/03/17 00:26:38;;;;;;;36.83;21.13;;;5.00;99.90;;;;;;5069035;28;20231;-77
2022/03/17 00:29:07;;;;;;;39.57;21.83;;;5.10;99.90;;;;;;5071857;28;20247;-77
2022/03/17 00:31:34;;;;;;;33.40;19.60;;;5.00;99.90;;;;;;5074379;28;20235;-77
2022/03/17 00:34:02;;;;;;;35.70;20.43;;;5.00;99.90;;;;;;5067342;28;20224;-77
2022/03/17 00:36:29;;;;;;;36.17;21.10;;;5.00;99.90;;;;;;5071144;28;20231;-80
2022/03/17 00:38:55;;;;;;;35.73;21.00;;;5.00;99.90;;;;;;5075018;28;20238;-81
2022/03/17 00:41:22;;;;;;;38.33;22.63;;;5.00;99.90;;;;;;5074066;28;20224;-81
2022/03/17 00:43:49;;;;;;;37.40;21.43;;;5.00;99.90;;;;;;5072760;28;20315;-80
2022/03/17 00:46:15;;;;;;;36.63;21.90;;;5.00;99.90;;;;;;5072346;28;20219;-80
2022/03/17 00:48:42;;;;;;;37.87;21.30;;;5.00;99.90;;;;;;5074218;28;20311;-81
2022/03/17 00:51:10;;;;;;;37.43;22.23;;;5.00;99.90;;;;;;5069449;28;20224;-80
2022/03/17 00:53:37;;;;;;;37.97;22.47;;;5.00;99.90;;;;;;5068665;28;20233;-80
2022/03/17 00:56:04;;;;;;;40.10;23.73;;;5.00;99.90;;;;;;5069922;28;20224;-80
2022/03/17 00:58:31;;;;;;;39.50;24.03;;;4.90;99.90;;;;;;5080644;28;20232;-80
2022/03/17 01:00:57;;;;;;;41.40;23.83;;;5.00;99.90;;;;;;5071464;28;20245;-80
2022/03/17 01:03:25;;;;;;;36.37;23.57;;;4.90;99.90;;;;;;5070058;28;20261;-79
2022/03/17 01:05:53;;;;;;;38.00;22.63;;;4.90;99.90;;;;;;5072666;28;20234;-80
2022/03/17 01:08:21;;;;;;;39.47;23.93;;;4.90;99.90;;;;;;5073619;28;20228;-79
2022/03/17 01:10:48;;;;;;;40.43;23.47;;;4.90;99.90;;;;;;5071856;28;20233;-81
2022/03/17 01:13:15;;;;;;;40.13;23.40;;;4.80;99.90;;;;;;5070861;28;20298;-80
2022/03/17 01:15:42;;;;;;;40.63;24.63;;;4.80;99.90;;;;;;5074648;28;20606;-79
2022/03/17 01:18:09;;;;;;;39.10;24.37;;;4.80;99.90;;;;;;5077703;28;20226;-79
2022/03/17 01:20:35;;;;;;;39.40;23.97;;;4.80;99.90;;;;;;5079228;28;20229;-79
2022/03/17 01:23:04;;;;;;;42.10;24.80;;;4.80;99.90;;;;;;5070721;28;20223;-81
2022/03/17 01:25:32;;;;;;;41.10;23.40;;;4.70;99.90;;;;;;5070264;28;20281;-79
2022/03/17 01:27:59;;;;;;;44.53;24.70;;;4.70;99.90;;;;;;5066307;28;20225;-80
2022/03/17 01:30:27;;;;;;;40.10;24.03;;;4.70;99.90;;;;;;5068362;28;20696;-81
2022/03/17 01:32:53;;;;;;;40.33;23.80;;;4.70;99.90;;;;;;5075944;28;20228;-80
2022/03/17 01:35:20;;;;;;;41.77;24.30;;;4.70;99.90;;;;;;5069259;28;20252;-81
2022/03/17 01:37:47;;;;;;;42.13;24.33;;;4.70;99.90;;;;;;5076586;28;20255;-80
2022/03/17 01:40:14;;;;;;;41.90;23.57;;;4.70;99.90;;;;;;5079298;28;20227;-80
2022/03/17 01:42:43;;;;;;;42.27;23.87;;;4.80;99.90;;;;;;5071264;28;20241;-81
2022/03/17 01:45:10;;;;;;;45.60;25.03;;;4.80;99.90;;;;;;5070460;28;20232;-82
2022/03/17 01:47:37;;;;;;;43.93;25.13;;;4.70;99.90;;;;;;5074260;28;20295;-81
2022/03/17 01:50:08;;;;;;;41.07;24.40;;;4.70;99.90;;;;;;5071127;28;20306;-83
2022/03/17 01:52:35;;;;;;;41.57;24.17;;;4.70;99.90;;;;;;5072410;28;20398;-82
2022/03/17 01:55:03;;;;;;;41.73;26.10;;;4.70;99.90;;;;;;5071026;28;20713;-82
2022/03/17 01:57:30;;;;;;;40.30;24.77;;;4.70;99.90;;;;;;5085894;28;20226;-82
2022/03/17 02:00:00;;;;;;;44.30;26.63;;;4.70;99.90;;;;;;5069835;28;20559;-82
2022/03/17 02:02:27;;;;;;;44.30;24.50;;;4.70;99.90;;;;;;5073944;28;20723;-82
2022/03/17 02:04:54;;;;;;;44.57;26.57;;;4.70;99.90;;;;;;5074669;28;20231;-81
2022/03/17 02:07:21;;;;;;;43.97;26.17;;;4.70;99.90;;;;;;5069259;28;20285;-80
2022/03/17 02:09:49;;;;;;;40.37;24.73;;;4.70;99.90;;;;;;5070005;28;20319;-80
2022/03/17 02:15:05;;;;;;;43.53;26.17;;;4.70;99.90;;;;;;5074548;28;20289;-80
2022/03/17 02:17:35;;;;;;;44.23;25.63;;;4.70;99.90;;;;;;5076689;28;20248;-79
2022/03/17 02:20:03;;;;;;;43.53;25.97;;;4.60;99.90;;;;;;5072766;28;20578;-80
2022/03/17 02:22:30;;;;;;;41.40;25.60;;;4.70;99.90;;;;;;5072044;28;20325;-79
2022/03/17 02:27:45;;;;;;;47.47;27.43;;;4.60;99.90;;;;;;5071667;28;20251;-80
2022/03/17 02:30:13;;;;;;;44.80;26.70;;;4.60;99.90;;;;;;5070389;28;20228;-81
2022/03/17 02:32:40;;;;;;;47.57;27.53;;;4.70;99.90;;;;;;5076602;28;20235;-81
2022/03/17 02:35:09;;;;;;;49.63;27.27;;;4.60;99.90;;;;;;5072902;28;20225;-81
2022/03/17 02:37:36;;;;;;;44.27;27.73;;;4.60;99.90;;;;;;5073053;28;20314;-81
2022/03/17 02:40:06;;;;;;;48.30;29.53;;;4.60;99.90;;;;;;5076864;28;20607;-81
2022/03/17 02:42:33;;;;;;;44.40;27.23;;;4.60;99.90;;;;;;5075836;28;20322;-82
2022/03/17 02:45:01;;;;;;;49.30;27.77;;;4.60;99.90;;;;;;5073004;28;20230;-81
2022/03/17 02:47:28;;;;;;;44.50;27.17;;;4.60;99.90;;;;;;5072268;28;20229;-81
2022/03/17 02:49:55;;;;;;;45.27;28.10;;;4.60;99.90;;;;;;5070926;28;20223;-81
2022/03/17 02:52:23;;;;;;;44.67;28.20;;;4.60;99.90;;;;;;5075873;28;20235;-81
2022/03/17 02:54:49;;;;;;;49.13;28.93;;;4.60;99.90;;;;;;5076128;28;20226;-81
2022/03/17 02:57:17;;;;;;;45.13;28.70;;;4.60;99.90;;;;;;5064382;28;20236;-82
2022/03/17 02:59:44;;;;;;;47.50;29.87;;;4.60;99.90;;;;;;5067753;28;20911;-82
2022/03/17 03:02:11;;;;;;;45.20;28.37;;;4.60;99.90;;;;;;5071975;28;20233;-83
2022/03/17 03:04:38;;;;;;;49.30;29.83;;;4.60;99.90;;;;;;5064041;28;20706;-84
2022/03/17 03:07:06;;;;;;;49.47;28.97;;;4.60;99.90;;;;;;5066737;28;20595;-82
2022/03/17 03:09:33;;;;;;;51.13;29.13;;;4.60;99.90;;;;;;5063460;28;20228;-82
2022/03/17 03:12:00;;;;;;;49.43;30.90;;;4.60;99.90;;;;;;5069855;28;20220;-82
2022/03/17 03:14:28;;;;;;;50.90;29.63;;;4.60;99.90;;;;;;5074285;28;20316;-82
2022/03/17 03:16:55;;;;;;;47.70;29.43;;;4.60;99.90;;;;;;5076321;28;20230;-82
2022/03/17 03:19:22;;;;;;;48.50;30.10;;;4.60;99.90;;;;;;5070219;28;20232;-81
2022/03/17 03:21:49;;;;;;;46.03;29.20;;;4.60;99.90;;;;;;5072859;28;20234;-80
2022/03/17 03:24:16;;;;;;;48.07;29.90;;;4.60;99.90;;;;;;5070851;28;20306;-80
2022/03/17 03:26:44;;;;;;;51.23;30.80;;;4.60;99.90;;;;;;5077601;28;20249;-80
2022/03/17 03:29:17;;;;;;;50.83;31.43;;;4.60;99.90;;;;;;5073285;28;20235;-80
2022/03/17 03:31:45;;;;;;;51.37;31.03;;;4.70;99.90;;;;;;5076299;28;20230;-79
2022/03/17 03:34:11;;;;;;;50.50;30.87;;;4.70;99.90;;;;;;5079778;28;20227;-80
2022/03/17 03:39:22;;;;;;;48.03;30.30;;;4.60;99.90;;;;;;5067790;28;20242;-79
2022/03/17 03:41:49;;;;;;;50.00;31.07;;;4.60;99.90;;;;;;5075089;28;20269;-80
2022/03/17 03:44:17;;;;;;;49.93;31.33;;;4.70;99.90;;;;;;5072723;28;20224;-80
2022/03/17 03:46:45;;;;;;;47.03;30.50;;;4.70;99.90;;;;;;5072315;28;20705;-79
2022/03/17 03:49:12;;;;;;;48.50;29.63;;;4.70;99.90;;;;;;5077146;28;20227;-80
2022/03/17 03:51:38;;;;;;;47.83;30.47;;;4.70;99.90;;;;;;5077946;28;20239;-80
2022/03/17 03:54:15;;;;;;;49.27;30.97;;;4.70;99.90;;;;;;5074030;28;20221;-80
2022/03/17 03:56:44;;;;;;;49.23;30.13;;;4.70;99.90;;;;;;5072787;28;20249;-79
2022/03/17 03:59:13;;;;;;;51.97;31.67;;;4.80;99.90;;;;;;5074737;28;20224;-78
2022/03/17 04:01:40;;;;;;;50.87;31.27;;;4.70;99.90;;;;;;5071029;28;20230;-79
2022/03/17 04:04:08;;;;;;;51.70;30.27;;;4.80;99.90;;;;;;5072867;28;20282;-80
2022/03/17 04:06:35;;;;;;;51.67;31.63;;;4.80;99.90;;;;;;5077008;28;20254;-79
2022/03/17 04:09:03;;;;;;;52.87;32.27;;;4.80;99.90;;;;;;5071263;28;20224;-79
2022/03/17 04:11:30;;;;;;;48.60;31.63;;;4.80;99.90;;;;;;5089395;28;20685;-80
2022/03/17 04:13:56;;;;;;;46.80;30.13;;;4.80;99.90;;;;;;5071073;28;20234;-79
2022/03/17 04:16:23;;;;;;;49.10;32.00;;;4.80;99.90;;;;;;5073667;28;20733;-79
2022/03/17 04:18:49;;;;;;;47.90;30.53;;;4.80;99.90;;;;;;5069631;28;20223;-79
2022/03/17 04:21:18;;;;;;;52.73;32.17;;;4.90;99.90;;;;;;5071412;28;20227;-79
2022/03/17 04:23:44;;;;;;;49.83;31.70;;;4.90;99.90;;;;;;5068239;28;20887;-80
2022/03/17 04:26:11;;;;;;;50.90;31.80;;;4.90;99.90;;;;;;5071746;28;20732;-79
2022/03/17 04:28:38;;;;;;;48.90;32.27;;;4.90;99.90;;;;;;5073806;28;20865;-80
2022/03/17 04:31:04;;;;;;;50.07;32.03;;;4.90;99.90;;;;;;5073300;28;20232;-79
2022/03/17 04:33:32;;;;;;;52.93;32.07;;;4.90;99.90;;;;;;5071791;28;20236;-78
2022/03/17 04:35:59;;;;;;;48.17;31.47;;;4.90;99.90;;;;;;5074945;28;20226;-80
2022/03/17 04:38:27;;;;;;;50.57;31.20;;;5.00;99.90;;;;;;5073543;28;20244;-80
2022/03/17 04:40:54;;;;;;;48.53;30.37;;;5.00;99.90;;;;;;5076089;28;20221;-81
2022/03/17 04:43:20;;;;;;;52.07;31.33;;;5.00;99.90;;;;;;5073524;28;20232;-81
2022/03/17 04:45:47;;;;;;;49.03;32.03;;;5.10;99.90;;;;;;5070180;28;20242;-80
2022/03/17 04:48:15;;;;;;;48.47;31.33;;;5.00;99.90;;;;;;5071573;28;20224;-79
2022/03/17 04:50:42;;;;;;;51.73;31.77;;;5.10;99.90;;;;;;5071204;28;20239;-80
2022/03/17 04:55:55;;;;;;;48.70;31.10;;;5.10;99.90;;;;;;5070672;28;20724;-78
2022/03/17 04:58:22;;;;;;;52.37;31.73;;;5.10;99.90;;;;;;5069643;28;20236;-80
2022/03/17 05:00:48;;;;;;;53.00;32.10;;;5.10;99.90;;;;;;5073875;28;20284;-80
2022/03/17 05:03:15;;;;;;;50.90;31.33;;;5.10;99.90;;;;;;5072699;28;20226;-80
2022/03/17 05:05:42;;;;;;;48.73;31.33;;;5.10;99.90;;;;;;5075497;28;20299;-79
2022/03/17 05:08:09;;;;;;;46.63;31.20;;;5.20;99.90;;;;;;5073808;28;20228;-81
2022/03/17 05:10:36;;;;;;;48.97;30.90;;;5.20;99.90;;;;;;5068435;28;20230;-81
2022/03/17 05:13:05;;;;;;;49.13;31.03;;;5.10;99.90;;;;;;5071851;28;20232;-80
2022/03/17 05:15:33;;;;;;;52.67;30.90;;;5.20;99.90;;;;;;5069530;28;20598;-79
2022/03/17 05:17:59;;;;;;;49.27;31.03;;;5.20;99.90;;;;;;5082498;28;20241;-79
2022/03/17 05:20:26;;;;;;;50.00;32.00;;;5.20;99.90;;;;;;5075916;28;20671;-79
2022/03/17 05:22:53;;;;;;;45.67;29.73;;;5.20;99.90;;;;;;5073616;28;21046;-80
2022/03/17 05:25:21;;;;;;;51.93;33.13;;;5.20;99.90;;;;;;5069968;28;20238;-80
2022/03/17 05:27:50;;;;;;;49.80;32.37;;;5.20;99.90;;;;;;5069276;28;20454;-80
2022/03/17 05:30:20;;;;;;;49.53;31.70;;;5.20;99.90;;;;;;5074310;28;20226;-79
2022/03/17 05:32:48;;;;;;;48.67;31.47;;;5.20;99.90;;;;;;5074338;28;20317;-80
2022/03/17 05:35:16;;;;;;;51.53;32.43;;;5.30;99.90;;;;;;5072475;28;20240;-79
2022/03/17 05:37:44;;;;;;;47.13;31.57;;;5.30;99.90;;;;;;5078190;28;20230;-79
2022/03/17 05:40:15;;;;;;;49.53;31.93;;;5.40;99.90;;;;;;5076344;28;20241;-78
2022/03/17 05:42:43;;;;;;;46.67;31.37;;;5.30;99.90;;;;;;5072364;28;20339;-79
2022/03/17 05:45:10;;;;;;;47.37;31.33;;;5.30;99.90;;;;;;5073272;28;20233;-78
2022/03/17 05:47:39;;;;;;;48.33;32.07;;;5.30;99.90;;;;;;5071693;28;20224;-79
2022/03/17 05:50:09;;;;;;;50.83;32.50;;;5.30;99.90;;;;;;5071269;28;20336;-79
2022/03/17 05:52:36;;;;;;;49.83;32.77;;;5.30;99.90;;;;;;5072383;28;20238;-79
2022/03/17 05:55:03;;;;;;;50.40;31.73;;;5.30;99.90;;;;;;5070035;28;20230;-79
2022/03/17 05:57:30;;;;;;;49.17;33.07;;;5.30;99.90;;;;;;5073188;28;20294;-80
2022/03/17 05:59:57;;;;;;;50.93;31.53;;;5.30;99.90;;;;;;5073192;28;20318;-79
2022/03/17 06:02:23;;;;;;;48.63;30.83;;;5.30;99.90;;;;;;5073581;28;20516;-79
2022/03/17 06:04:51;;;;;;;47.10;30.80;;;5.30;99.90;;;;;;5071688;28;20887;-79
2022/03/17 06:07:18;;;;;;;51.87;32.20;;;5.30;99.90;;;;;;5070975;28;20220;-79
2022/03/17 06:09:44;;;;;;;49.63;32.63;;;5.30;99.90;;;;;;5072100;28;20236;-80
2022/03/17 06:12:11;;;;;;;46.77;30.23;;;5.30;99.90;;;;;;5070890;28;20225;-80
2022/03/17 06:14:38;;;;;;;48.40;32.90;;;5.30;99.90;;;;;;5071572;28;20232;-78
2022/03/17 06:17:05;;;;;;;48.80;31.63;;;5.30;99.90;;;;;;5076720;28;20314;-78
2022/03/17 06:19:32;;;;;;;49.63;31.93;;;5.40;99.90;;;;;;5071258;28;20228;-79
2022/03/17 06:22:00;;;;;;;49.70;31.77;;;5.40;99.90;;;;;;5072343;28;20234;-79
2022/03/17 06:24:26;;;;;;;48.30;32.03;;;5.40;99.90;;;;;;5073005;28;20234;-79
2022/03/17 06:26:53;;;;;;;45.53;31.13;;;5.40;99.90;;;;;;5069138;28;20235;-79
2022/03/17 06:29:20;;;;;;;49.20;32.00;;;5.40;99.90;;;;;;5070561;28;20231;-80
2022/03/17 06:31:47;;;;;;;45.77;30.30;;;5.40;99.90;;;;;;5072385;28;20754;-79
2022/03/17 06:34:13;;;;;;;47.97;31.63;;;5.40;99.90;;;;;;5069057;28;20228;-79
2022/03/17 06:36:40;;;;;;;51.13;31.97;;;5.40;99.90;;;;;;5072948;28;20623;-79
2022/03/17 06:39:08;;;;;;;47.33;30.77;;;5.40;99.90;;;;;;5070357;28;21006;-80
2022/03/17 06:41:35;;;;;;;46.37;31.13;;;5.40;99.90;;;;;;5071545;28;20233;-80
2022/03/17 06:44:02;;;;;;;50.00;32.93;;;5.50;99.90;;;;;;5071264;28;20217;-80
2022/03/17 06:46:30;;;;;;;52.83;33.50;;;5.50;99.90;;;;;;5074553;28;20224;-80
2022/03/17 06:48:57;;;;;;;48.97;32.67;;;5.50;99.90;;;;;;5076111;28;20784;-79
2022/03/17 06:51:24;;;;;;;51.57;32.13;;;5.50;99.90;;;;;;5077846;28;20249;-79
2022/03/17 06:53:50;;;;;;;46.80;31.20;;;5.50;99.90;;;;;;5075555;28;20292;-80
2022/03/17 06:56:19;;;;;;;48.70;32.13;;;5.60;99.90;;;;;;5075015;28;20792;-79
2022/03/17 06:58:45;;;;;;;45.27;31.00;;;5.60;99.90;;;;;;5074100;28;20327;-80
2022/03/17 07:01:12;;;;;;;49.43;32.53;;;5.70;99.90;;;;;;5077922;28;20231;-80
2022/03/17 07:03:39;;;;;;;45.47;31.90;;;5.60;99.90;;;;;;5071553;28;20319;-79
2022/03/17 07:06:05;;;;;;;48.27;33.07;;;5.70;99.90;;;;;;5071436;28;20720;-79
2022/03/17 07:08:32;;;;;;;49.77;33.53;;;5.70;99.90;;;;;;5073409;28;20233;-80
2022/03/17 07:10:59;;;;;;;47.87;32.77;;;5.80;99.90;;;;;;5075131;28;20597;-80
2022/03/17 07:13:27;;;;;;;48.60;34.30;;;5.80;99.90;;;;;;5074682;28;20224;-80
2022/03/17 07:15:54;;;;;;;49.87;32.60;;;5.80;99.90;;;;;;5074296;28;20238;-80
2022/03/17 07:18:23;;;;;;;50.27;33.70;;;5.90;99.90;;;;;;5074369;28;20314;-79
2022/03/17 07:20:50;;;;;;;47.13;32.83;;;5.90;99.90;;;;;;5066825;28;20330;-79
2022/03/17 07:23:17;;;;;;;49.57;33.17;;;5.90;99.90;;;;;;5066424;28;20324;-79
2022/03/17 07:25:44;;;;;;;49.47;32.73;;;6.00;99.90;;;;;;5072155;28;20234;-78
2022/03/17 07:28:15;;;;;;;50.63;33.03;;;6.10;99.90;;;;;;5065740;28;20289;-78
2022/03/17 07:30:43;;;;;;;50.43;34.37;;;6.20;99.90;;;;;;5071746;28;20222;-79
2022/03/17 07:33:10;;;;;;;50.20;33.43;;;6.20;99.90;;;;;;5072470;28;20243;-78
2022/03/17 07:35:37;;;;;;;48.33;33.40;;;6.30;99.90;;;;;;5071612;28;20236;-78
2022/03/17 07:38:05;;;;;;;50.03;34.73;;;6.30;99.90;;;;;;5070281;28;20232;-78
2022/03/17 07:40:32;;;;;;;48.47;33.67;;;6.40;99.90;;;;;;5070706;28;20835;-78
2022/03/17 07:43:00;;;;;;;50.50;36.27;;;6.40;99.90;;;;;;5068411;28;20258;-78
2022/03/17 07:45:26;;;;;;;51.93;33.43;;;6.40;99.90;;;;;;5071256;28;20722;-78
2022/03/17 07:48:23;;;;;;;48.63;32.57;;;6.40;99.90;;;;;;5070766;28;20229;-78
2022/03/17 07:50:58;;;;;;;45.17;32.90;;;6.50;99.90;;;;;;5068861;28;20730;-79
2022/03/17 07:53:26;;;;;;;47.07;32.97;;;6.50;99.90;;;;;;5065883;28;20309;-78
2022/03/17 07:55:55;;;;;;;50.40;33.83;;;6.60;99.90;;;;;;5072907;28;20244;-78
2022/03/17 07:58:23;;;;;;;47.90;33.50;;;6.50;99.90;;;;;;5099285;28;20227;-79
2022/03/17 08:00:51;;;;;;;50.63;33.57;;;6.60;99.90;;;;;;5071797;28;20294;-78
2022/03/17 08:03:18;;;;;;;48.97;34.60;;;6.60;99.90;;;;;;5072699;28;20230;-78
2022/03/17 08:05:47;;;;;;;52.37;34.10;;;6.70;99.90;;;;;;5069888;28;20229;-78
2022/03/17 08:08:14;;;;;;;50.50;35.20;;;6.70;99.90;;;;;;5070977;28;20242;-78
2022/03/17 08:10:41;;;;;;;49.40;33.73;;;6.70;99.90;;;;;;5072257;28;20318;-78
2022/03/17 08:13:09;;;;;;;50.07;34.33;;;6.70;99.90;;;;;;5069742;28;20234;-79
2022/03/17 08:15:36;;;;;;;48.33;33.97;;;6.70;99.90;;;;;;5070123;28;20231;-78
2022/03/17 08:18:03;;;;;;;48.77;33.43;;;6.80;99.90;;;;;;5070887;28;20910;-78
2022/03/17 08:20:30;;;;;;;49.23;34.77;;;6.80;99.90;;;;;;5071410;28;20231;-82
2022/03/17 08:22:58;;;;;;;46.37;31.87;;;6.80;99.90;;;;;;5073205;28;20285;-79
2022/03/17 08:25:25;;;;;;;47.67;33.17;;;6.80;99.90;;;;;;5070149;28;21443;-78
2022/03/17 08:27:52;;;;;;;46.93;33.23;;;6.90;99.90;;;;;;5072037;28;20281;-78
2022/03/17 08:30:19;;;;;;;44.27;32.03;;;7.00;99.90;;;;;;5069477;28;20235;-79
2022/03/17 08:32:46;;;;;;;48.10;33.60;;;7.00;99.90;;;;;;5070019;28;20776;-80
2022/03/17 08:35:14;;;;;;;49.83;33.30;;;7.00;99.90;;;;;;5064643;28;20229;-78
2022/03/17 08:37:41;;;;;;;47.70;33.43;;;7.10;99.90;;;;;;5069278;28;20791;-78
2022/03/17 08:40:10;;;;;;;46.93;32.23;;;7.20;99.90;;;;;;5069087;28;20684;-78
2022/03/17 08:42:36;;;;;;;46.50;32.83;;;7.20;99.90;;;;;;5071982;28;20266;-78
2022/03/17 08:49:18;;;;;;;44.37;33.20;;;7.30;99.90;;;;;;5068381;28;20310;-78
2022/03/17 08:50:35;;;;;;;46.20;32.37;;;7.30;99.90;;;;;;5069158;28;20238;-78
2022/03/17 08:53:01;;;;;;;43.70;33.40;;;7.40;99.90;;;;;;5069188;28;20228;-78
2022/03/17 08:55:30;;;;;;;42.53;31.87;;;7.40;99.80;;;;;;5070246;28;20235;-78
2022/03/17 08:57:57;;;;;;;45.17;31.40;;;7.50;99.90;;;;;;5071642;28;20283;-80
2022/03/17 09:00:25;;;;;;;46.07;32.90;;;7.50;99.60;;;;;;5067219;28;20309;-78
2022/03/17 09:02:53;;;;;;;43.90;31.77;;;7.40;99.30;;;;;;5066275;28;20645;-79
2022/03/17 09:05:20;;;;;;;48.60;33.23;;;7.50;99.60;;;;;;5066242;28;20681;-79
2022/03/17 09:07:46;;;;;;;47.43;34.67;;;7.50;99.50;;;;;;5070236;28;20217;-81
2022/03/17 09:10:15;;;;;;;55.80;37.53;;;7.50;99.50;;;;;;5071335;28;20695;-80
2022/03/17 09:12:43;;;;;;;46.43;33.23;;;7.50;99.50;;;;;;5071759;28;20320;-80
2022/03/17 09:15:11;;;;;;;43.23;32.63;;;7.50;99.40;;;;;;5068847;28;20224;-80
2022/03/17 09:17:41;;;;;;;43.40;32.70;;;7.50;99.30;;;;;;5070720;28;20930;-81
2022/03/17 09:20:15;;;;;;;47.43;33.83;;;7.50;99.50;;;;;;5071409;28;20228;-80
2022/03/17 09:22:42;;;;;;;46.87;33.60;;;7.50;99.40;;;;;;5070726;28;20668;-81
2022/03/17 09:25:09;;;;;;;48.00;32.50;;;7.40;99.40;;;;;;5071571;28;20231;-80
2022/03/17 09:27:36;;;;;;;45.57;32.77;;;7.40;99.60;;;;;;5073312;28;20264;-80
2022/03/17 09:30:06;;;;;;;46.23;32.97;;;7.40;99.70;;;;;;5073065;28;20667;-81
2022/03/17 09:32:33;;;;;;;45.53;33.17;;;7.40;99.90;;;;;;5071565;28;20289;-81
2022/03/17 09:34:59;;;;;;;49.97;35.07;;;7.40;99.90;;;;;;5072856;28;20330;-80
2022/03/17 09:37:26;;;;;;;53.17;34.00;;;7.30;99.90;;;;;;5072418;28;20869;-80
2022/03/17 09:39:53;;;;;;;46.83;34.40;;;7.30;99.90;;;;;;5070915;28;20297;-80
2022/03/17 09:42:22;;;;;;;52.30;36.73;;;7.20;99.90;;;;;;5070878;28;20691;-80
2022/03/17 09:44:53;;;;;;;49.60;34.70;;;7.20;99.90;;;;;;5067496;28;20236;-78
2022/03/17 09:47:22;;;;;;;51.97;36.00;;;7.10;99.90;;;;;;5063007;28;20219;-80
2022/03/17 09:49:51;;;;;;;52.03;35.53;;;7.00;99.90;;;;;;5060825;28;20229;-79
2022/03/17 09:52:20;;;;;;;51.80;36.43;;;6.90;99.90;;;;;;5065826;28;20514;-79
2022/03/17 09:54:48;;;;;;;50.80;35.67;;;6.90;99.90;;;;;;5068314;28;20508;-81
2022/03/17 09:57:16;;;;;;;53.57;36.57;;;6.90;99.90;;;;;;5069701;28;20220;-81
2022/03/17 09:59:44;;;;;;;54.90;38.20;;;6.80;99.90;;;;;;5072570;28;20224;-82
2022/03/17 10:02:16;;;;;;;52.27;37.50;;;6.80;99.90;;;;;;5072206;28;20220;-82
2022/03/17 10:04:45;;;;;;;48.80;35.93;;;6.70;99.90;;;;;;5067558;28;20231;-83
2022/03/17 10:07:12;;;;;;;54.73;38.23;;;6.70;99.90;;;;;;5065734;28;20287;-83
2022/03/17 10:09:39;;;;;;;54.87;37.90;;;6.70;99.90;;;;;;5058474;28;20228;-83
2022/03/17 10:12:09;;;;;;;57.73;38.03;;;6.60;99.90;;;;;;5065857;28;20807;-83
2022/03/17 10:14:38;;;;;;;53.77;37.87;;;6.60;99.90;;;;;;5065176;28;20319;-84
2022/03/17 10:17:06;;;;;;;53.77;37.73;;;6.60;99.90;;;;;;5068461;28;20725;-83
2022/03/17 10:19:34;;;;;;;58.20;38.77;;;6.60;99.90;;;;;;5066608;28;20315;-84
2022/03/17 10:22:09;;;;;;;60.33;39.47;;;6.60;99.90;;;;;;5066648;28;20228;-84
2022/03/17 10:24:37;;;;;;;57.70;38.10;;;6.50;99.90;;;;;;5063384;28;20295;-84
2022/03/17 10:27:04;;;;;;;59.93;40.20;;;6.60;99.90;;;;;;5065052;28;20295;-83
2022/03/17 10:29:31;;;;;;;56.67;38.73;;;6.50;99.90;;;;;;5064354;28;20242;-84
2022/03/17 10:32:02;;;;;;;59.00;38.07;;;6.60;99.90;;;;;;5068497;28;20250;-83
2022/03/17 10:34:30;;;;;;;62.90;40.67;;;6.60;99.90;;;;;;5065312;28;20233;-83
2022/03/17 10:37:11;;;;;;;55.53;38.63;;;6.60;99.90;;;;;;5061946;28;20232;-83
2022/03/17 10:39:45;;;;;;;55.10;38.40;;;6.60;99.90;;;;;;5067528;28;20226;-83
2022/03/17 10:42:15;;;;;;;57.50;38.83;;;6.60;99.90;;;;;;5066438;28;20692;-83
2022/03/17 10:44:46;;;;;;;57.87;38.63;;;6.60;99.90;;;;;;5066430;28;20250;-83
2022/03/17 10:47:13;;;;;;;58.63;41.37;;;6.60;99.90;;;;;;5068111;28;20233;-82
2022/03/17 10:49:58;;;;;;;57.70;39.37;;;6.60;99.90;;;;;;5069136;28;20224;-81
2022/03/17 10:52:26;;;;;;;56.53;38.63;;;6.60;99.90;;;;;;5068038;28;20231;-81
2022/03/17 10:54:57;;;;;;;56.20;38.77;;;6.70;99.90;;;;;;5070625;28;20231;-81
2022/03/17 10:57:25;;;;;;;58.67;39.73;;;6.70;99.90;;;;;;5070693;28;20234;-82
2022/03/17 10:59:55;;;;;;;60.70;39.77;;;6.70;99.90;;;;;;5066683;28;20722;-82
2022/03/17 11:02:25;;;;;;;58.00;39.77;;;6.70;99.90;;;;;;5082392;28;20251;-82
2022/03/17 11:04:52;;;;;;;57.53;40.53;;;6.70;99.90;;;;;;5068414;28;20254;-82
2022/03/17 11:07:21;;;;;;;53.67;37.97;;;6.70;99.90;;;;;;5070956;28;20232;-82
2022/03/17 11:09:49;;;;;;;57.47;37.57;;;6.70;99.90;;;;;;5069745;28;20254;-82
2022/03/17 11:12:20;;;;;;;56.93;38.37;;;6.70;99.90;;;;;;5068523;28;20230;-81
2022/03/17 11:14:49;;;;;;;55.27;39.43;;;6.80;99.90;;;;;;5066322;28;20246;-82
2022/03/17 11:17:21;;;;;;;57.37;38.57;;;6.80;99.90;;;;;;5067413;28;20241;-82
2022/03/17 11:19:49;;;;;;;53.97;36.87;;;6.80;99.90;;;;;;5068257;28;20228;-81
2022/03/17 11:22:17;;;;;;;54.17;38.57;;;6.80;99.90;;;;;;5062944;28;20347;-81
2022/03/17 11:24:44;;;;;;;57.07;39.80;;;6.80;99.90;;;;;;5069287;28;20235;-81
2022/03/17 11:27:13;;;;;;;58.50;38.53;;;6.80;99.90;;;;;;5070115;28;20231;-81
2022/03/17 11:29:42;;;;;;;59.33;39.47;;;6.90;99.90;;;;;;5066209;28;20253;-81
2022/03/17 11:32:24;;;;;;;53.50;38.40;;;6.90;99.90;;;;;;5068117;28;20604;-81
2022/03/17 11:34:51;;;;;;;46.03;33.07;;;6.90;99.90;;;;;;5071926;28;20780;-81
2022/03/17 11:37:25;;;;;;;40.17;29.93;;;6.90;99.90;;;;;;5070130;28;20224;-81
2022/03/17 11:39:54;;;;;;;34.87;25.13;;;6.90;99.90;;;;;;5072069;28;20261;-81
2022/03/17 11:42:36;;;;;;;28.47;20.20;;;6.90;99.90;;;;;;5069444;28;20234;-81
2022/03/17 11:45:37;;;;;;;29.60;18.63;;;6.90;99.90;;;;;;5071797;28;20233;-82
2022/03/17 11:48:09;;;;;;;22.33;11.80;;;6.90;99.90;;;;;;5070441;28;20229;-81
2022/03/17 11:50:41;;;;;;;16.50;9.57;;;6.90;99.90;;;;;;5070778;28;20228;-81
2022/03/17 11:53:18;;;;;;;14.77;9.50;;;6.90;99.90;;;;;;5065781;28;20223;-82
2022/03/17 11:55:51;;;;;;;18.97;9.10;;;6.90;99.90;;;;;;5068218;28;20232;-82
2022/03/17 11:58:24;;;;;;;19.77;9.47;;;6.80;99.90;;;;;;5071053;28;20235;-81
2022/03/17 12:00:53;;;;;;;14.73;8.57;;;6.80;99.90;;;;;;5072855;28;20277;-81
2022/03/17 12:03:29;;;;;;;16.63;8.70;;;6.80;99.90;;;;;;5068937;28;20236;-81
2022/03/17 12:06:14;;;;;;;17.30;8.40;;;6.80;99.90;;;;;;5070715;28;20776;-81
2022/03/17 12:08:43;;;;;;;16.53;8.80;;;6.90;99.90;;;;;;5066930;28;20251;-81
2022/03/17 12:11:13;;;;;;;17.77;9.47;;;7.00;99.90;;;;;;5082666;28;20232;-83
2022/03/17 12:13:41;;;;;;;28.50;17.30;;;7.10;99.90;;;;;;5069854;28;20234;-82
2022/03/17 12:16:12;;;;;;;15.03;8.27;;;7.10;99.90;;;;;;5067248;28;20322;-82
2022/03/17 12:19:01;;;;;;;16.10;8.37;;;7.20;99.90;;;;;;5067509;28;20239;-81
2022/03/17 12:22:05;;;;;;;14.17;7.20;;;7.30;99.90;;;;;;5064874;28;20231;-82
2022/03/17 12:24:38;;;;;;;11.27;5.60;;;7.40;99.90;;;;;;5065871;28;20856;-82
2022/03/17 12:27:06;;;;;;;11.30;5.90;;;7.40;99.90;;;;;;5063889;28;20216;-83
2022/03/17 12:29:34;;;;;;;9.00;4.63;;;7.50;99.90;;;;;;5066464;28;20315;-83
2022/03/17 12:32:06;;;;;;;7.77;4.43;;;7.40;99.90;;;;;;5069315;28;20219;-81
2022/03/17 12:34:34;;;;;;;9.60;3.57;;;7.40;99.90;;;;;;5061397;28;20275;-82
2022/03/17 12:37:02;;;;;;;10.10;4.30;;;7.40;99.90;;;;;;5069758;28;20724;-82
2022/03/17 12:39:29;;;;;;;10.00;3.63;;;7.40;99.90;;;;;;5068446;28;20221;-82
2022/03/17 12:41:59;;;;;;;9.63;3.93;;;7.40;99.90;;;;;;5065323;28;20225;-83
2022/03/17 12:44:27;;;;;;;5.97;3.10;;;7.40;99.90;;;;;;5062116;28;20565;-83
2022/03/17 12:46:56;;;;;;;8.50;3.50;;;7.50;99.90;;;;;;5096215;28;20666;-82
2022/03/17 12:49:23;;;;;;;8.10;3.40;;;7.50;99.90;;;;;;5068830;28;20254;-83
2022/03/17 12:51:50;;;;;;;7.93;2.90;;;7.50;99.90;;;;;;5071560;28;20229;-82
2022/03/17 12:54:17;;;;;;;7.47;2.40;;;7.60;99.90;;;;;;5067024;28;20217;-81
2022/03/17 12:56:52;;;;;;;6.47;2.60;;;7.70;99.90;;;;;;5064214;28;20233;-83
2022/03/17 12:59:20;;;;;;;5.63;1.93;;;7.70;99.90;;;;;;5065856;28;20555;-83